Time;durP1;ratioP1;P1;durP2;ratioP2;P2;SDS_P1;SDS_P2;PMS_P1;PMS_P2;Temp;Humidity;BMP_temperature;BMP_pressure;BME280_temperature;BME280_humidity;BME280_pressure;Samples;Min_cycle;Max_cycle;Signal;HPM_P1;HPM_P2
2022/04/27 00:01:23;;;;;;;;;;;;;;;-145.06;0.00;60892.56;4690884;29;19923;-87
2022/04/27 00:04:02;;;;;;;;;;;;;;;-145.06;0.00;60892.56;4694123;29;19920;-86
2022/04/27 00:06:41;;;;;;;;;;;;;;;-145.06;0.00;60892.56;4691155;29;20489;-86
2022/04/27 00:09:20;;;;;;;;;;;;;;;-145.06;0.00;60892.56;4694252;29;20478;-86
2022/04/27 00:12:01;;;;;;;;;;;;;;;-145.06;0.00;60892.56;4688629;29;19920;-87
2022/04/27 00:14:40;;;;;;;;;;;;;;;-145.06;0.00;60892.56;4693494;29;19928;-87
2022/04/27 00:17:19;;;;;;;;;;;;;;;-145.06;0.00;60892.56;4694620;29;19919;-87
2022/04/27 00:19:57;;;;;;;;;;;;;;;-145.06;0.00;60892.56;4705942;29;19923;-86
2022/04/27 00:22:36;;;;;;;;;;;;;;;-145.06;0.00;60892.56;4692686;29;20506;-87
2022/04/27 00:25:16;;;;;;;;;;;;;;;-145.06;0.00;60892.56;4688397;29;19920;-88
2022/04/27 00:27:55;;;;;;;;;;;;;;;-145.06;0.00;60892.56;4693532;29;19920;-87
2022/04/27 00:30:36;;;;;;;;;;;;;;;-145.06;0.00;60892.56;4683624;29;20761;-89
2022/04/27 00:33:15;;;;;;;;;;;;;;;-145.06;0.00;60892.56;4689106;29;19923;-86
2022/04/27 00:35:54;;;;;;;;;;;;;;;-145.06;0.00;60892.56;4692180;29;20034;-86
2022/04/27 00:38:33;;;;;;;;;;;;;;;-145.06;0.00;60892.56;4693930;29;20377;-86
2022/04/27 00:41:12;;;;;;;;;;;;;;;-145.06;0.00;60892.56;4707057;29;19971;-86
2022/04/27 00:43:51;;;;;;;;;;;;;;;-145.06;0.00;60892.56;4690046;29;19923;-87
2022/04/27 00:46:29;;;;;;;;;;;;;;;-145.06;0.00;60892.56;4691444;29;19919;-87
2022/04/27 00:49:08;;;;;;;;;;;;;;;-145.06;0.00;60892.56;4699102;29;19928;-88
2022/04/27 00:51:48;;;;;;;;;;;;;;;-145.06;0.00;60892.56;4692021;29;20006;-86
2022/04/27 00:54:28;;;;;;;;;;;;;;;-145.06;0.00;60892.56;4696033;29;19919;-88
2022/04/27 00:57:07;;;;;;;;;;;;;;;-145.06;0.00;60892.56;4702694;29;20361;-86
2022/04/27 00:59:47;;;;;;;;;;;;;;;-145.06;0.00;60892.56;4696689;29;20703;-87
2022/04/27 01:02:26;;;;;;;;;;;;;;;-145.06;0.00;60892.56;4694276;29;20382;-88
2022/04/27 01:05:09;;;;;;;;;;;;;;;-145.06;0.00;60892.56;4694109;29;20294;-86
2022/04/27 01:07:48;;;;;;;;;;;;;;;-145.06;0.00;60892.56;4690005;29;19924;-87
2022/04/27 01:10:27;;;;;;;;;;;;;;;-145.06;0.00;60892.56;4694463;29;20522;-87
2022/04/27 01:13:06;;;;;;;;;;;;;;;-145.06;0.00;60892.56;4697444;29;19959;-87
2022/04/27 01:15:45;;;;;;;;;;;;;;;-145.06;0.00;60892.56;4702683;29;19920;-87
2022/04/27 01:18:24;;;;;;;;;;;;;;;-145.06;0.00;60892.56;4700868;29;19924;-87
2022/04/27 01:21:03;;;;;;;;;;;;;;;-145.06;0.00;60892.56;4701012;29;19919;-87
2022/04/27 01:23:43;;;;;;;;;;;;;;;-145.06;0.00;60892.56;4695580;29;19920;-86
2022/04/27 01:26:22;;;;;;;;;;;;;;;-145.06;0.00;60892.56;4696776;29;20508;-88
2022/04/27 01:29:01;;;;;;;;;;;;;;;-145.06;0.00;60892.56;4697790;29;19932;-89
2022/04/27 01:31:39;;;;;;;;;;;;;;;-145.06;0.00;60892.56;4699273;29;19971;-86
2022/04/27 01:34:19;;;;;;;;;;;;;;;-145.06;0.00;60892.56;4707447;29;19985;-87
2022/04/27 01:39:56;;;;;;;;;;;;;;;9.31;0.00;60892.56;4711521;29;20254;-88
2022/04/27 01:42:35;;;;;;;;;;;;;;;187.52;0.00;60892.56;4695774;29;19920;-88
2022/04/27 01:45:14;;;;;;;;;;;;;;;-145.06;0.00;60892.56;4716084;29;20002;-88
2022/04/27 01:47:53;;;;;;;;;;;;;;;10.68;0.00;60892.56;4690338;29;20007;-87
2022/04/27 01:50:32;;;;;;;;;;;;;;;-145.06;0.00;60892.56;4713028;29;19932;-87
2022/04/27 01:56:09;;;;;;;;;;;;;;;-145.06;0.00;60892.56;4713547;29;20016;-88
2022/04/27 01:58:48;;;;;;;;;;;;;;;-145.06;0.00;60892.56;4690803;29;19920;-87
2022/04/27 02:01:27;;;;;;;;;;;;;;;-145.06;0.00;60892.56;4693892;29;19919;-87
2022/04/27 02:04:06;;;;;;;;;;;;;;;-145.06;0.00;60892.56;4706098;29;20006;-87
2022/04/27 02:06:45;;;;;;;;;;;;;;;-145.06;0.00;60892.56;4699153;29;19928;-87
2022/04/27 02:09:24;;;;;;;;;;;;;;;-145.06;0.00;60892.56;4697129;29;19928;-88
2022/04/27 02:12:06;;;;;;;;;;;;;;;-145.06;0.00;60892.56;4714715;29;20254;-87
2022/04/27 02:14:45;;;;;;;;;;;;;;;-145.06;0.00;60892.56;4706715;29;19923;-87
2022/04/27 02:17:24;;;;;;;;;;;;;;;-145.06;0.00;60892.56;4699240;29;19923;-88
2022/04/27 02:20:04;;;;;;;;;;;;;;;-145.06;0.00;60892.56;4713832;29;20267;-87
2022/04/27 02:22:44;;;;;;;;;;;;;;;-145.06;0.00;60892.56;4693653;29;19919;-87
2022/04/27 02:25:23;;;;;;;;;;;;;;;-145.06;0.00;60892.56;4691369;29;20030;-87
2022/04/27 02:28:01;;;;;;;;;;;;;;;-145.06;0.00;60892.56;4694514;29;19924;-88
2022/04/27 02:30:40;;;;;;;;;;;;;;;-145.06;0.00;60892.56;4690413;29;19928;-88
2022/04/27 02:33:19;;;;;;;;;;;;;;;-145.06;0.00;60892.56;4691953;29;19920;-87
2022/04/27 02:35:58;;;;;;;;;;;;;;;-145.06;0.00;60892.56;4695929;29;19919;-87
2022/04/27 02:38:37;;;;;;;;;;;;;;;-145.06;0.00;60892.56;4698979;29;20014;-88
2022/04/27 02:41:16;;;;;;;;;;;;;;;-145.06;0.00;60892.56;4695420;29;19923;-87
2022/04/27 02:43:55;;;;;;;;;;;;;;;-145.06;0.00;60892.56;4697030;29;20385;-88
2022/04/27 02:46:34;;;;;;;;;;;;;;;-145.06;0.00;60892.56;4692718;29;20259;-88
2022/04/27 02:52:11;;;;;;;;;;;;;;;-145.06;0.00;60892.56;4722108;29;20294;-86
2022/04/27 02:54:50;;;;;;;;;;;;;;;-145.06;0.00;60892.56;4702450;29;19962;-87
2022/04/27 02:57:29;;;;;;;;;;;;;;;8.08;0.00;60892.56;4716381;29;19919;-87
2022/04/27 03:00:08;;;;;;;;;;;;;;;8.05;0.00;60892.56;4692798;29;19920;-89
2022/04/27 03:02:47;;;;;;;;;;;;;;;8.04;0.00;60892.56;4690685;29;19920;-87
2022/04/27 03:05:26;;;;;;;;;;;;;;;8.08;0.00;60892.56;4692209;29;20378;-87
2022/04/27 03:08:05;;;;;;;;;;;;;;;-145.06;0.00;60892.56;4693486;29;19924;-87
2022/04/27 03:10:44;;;;;;;;;;;;;;;-145.06;0.00;60892.56;4693995;29;20756;-88
2022/04/27 03:13:23;;;;;;;;;;;;;;;-145.06;0.00;60892.56;4704715;29;19967;-88
2022/04/27 03:16:02;;;;;;;;;;;;;;;8.08;0.00;60892.56;4697306;29;19920;-86
2022/04/27 03:18:42;;;;;;;;;;;;;;;-145.06;0.00;60892.56;4696390;29;19915;-87
2022/04/27 03:21:21;;;;;;;;;;;;;;;-145.06;0.00;60892.56;4712387;29;19966;-90
2022/04/27 03:24:00;;;;;;;;;;;;;;;-145.06;0.00;60892.56;4711337;29;20370;-87
2022/04/27 03:26:40;;;;;;;;;;;;;;;-145.06;0.00;60892.56;4705222;29;19919;-87
2022/04/27 03:29:19;;;;;;;;;;;;;;;-145.06;0.00;60892.56;4689213;29;19999;-87
2022/04/27 03:31:58;;;;;;;;;;;;;;;-145.06;0.00;60892.56;4692543;29;20258;-87
2022/04/27 03:34:37;;;;;;;;;;;;;;;-145.06;0.00;60892.56;4716114;29;20003;-87
2022/04/27 03:37:16;;;;;;;;;;;;;;;-145.06;0.00;60892.56;4695421;29;19923;-87
2022/04/27 03:39:55;;;;;;;;;;;;;;;-145.06;0.00;60892.56;4691519;29;19920;-88
2022/04/27 03:42:34;;;;;;;;;;;;;;;-145.06;0.00;60892.56;4700870;29;19919;-87
2022/04/27 03:45:13;;;;;;;;;;;;;;;-145.06;0.00;60892.56;4700436;29;19963;-88
2022/04/27 03:47:52;;;;;;;;;;;;;;;-145.06;0.00;60892.56;4686697;29;20665;-88
2022/04/27 03:50:32;;;;;;;;;;;;;;;-145.06;0.00;60892.56;4696181;29;19924;-85
2022/04/27 03:53:10;;;;;;;;;;;;;;;-145.06;0.00;60892.56;4716538;29;19927;-89
2022/04/27 03:55:49;;;;;;;;;;;;;;;-145.06;0.00;60892.56;4699685;29;19916;-88
2022/04/27 03:58:28;;;;;;;;;;;;;;;-145.06;0.00;60892.56;4686755;29;20263;-87
2022/04/27 04:01:07;;;;;;;;;;;;;;;-145.06;0.00;60892.56;4688966;29;20650;-87
2022/04/27 04:03:46;;;;;;;;;;;;;;;-145.06;0.00;60892.56;4692849;29;20366;-88
2022/04/27 04:06:26;;;;;;;;;;;;;;;-145.06;0.00;60892.56;4697153;29;19924;-87
2022/04/27 04:09:04;;;;;;;;;;;;;;;-145.06;0.00;60892.56;4689410;29;19928;-89
2022/04/27 04:11:44;;;;;;;;;;;;;;;-145.06;0.00;60892.56;4707195;29;19928;-88
2022/04/27 04:14:23;;;;;;;;;;;;;;;-145.06;0.00;60892.56;4698083;29;19971;-88
2022/04/27 04:17:02;;;;;;;;;;;;;;;-145.06;0.00;60892.56;4714199;29;19919;-87
2022/04/27 04:19:41;;;;;;;;;;;;;;;-145.06;0.00;60892.56;4702190;29;19923;-88
2022/04/27 04:22:20;;;;;;;;;;;;;;;-145.06;0.00;60892.56;4693999;29;20358;-88
2022/04/27 04:30:55;;;;;;;;;;;;;;;-145.06;0.00;60892.56;4705743;29;19924;-90
2022/04/27 04:33:34;;;;;;;;;;;;;;;-145.06;0.00;60892.56;4714666;29;19907;-88
2022/04/27 04:36:13;;;;;;;;;;;;;;;-145.06;0.00;60892.56;4709636;29;19963;-88
2022/04/27 04:38:53;;;;;;;;;;;;;;;-145.06;0.00;60892.56;4693830;29;19924;-88
2022/04/27 04:41:32;;;;;;;;;;;;;;;-145.06;0.00;60892.56;4692773;29;20518;-87
2022/04/27 04:44:11;;;;;;;;;;;;;;;-145.06;0.00;60892.56;4700045;29;19923;-88
2022/04/27 04:46:50;;;;;;;;;;;;;;;-145.06;0.00;60892.56;4694380;29;19979;-88
2022/04/27 04:49:29;;;;;;;;;;;;;;;-145.06;0.00;60892.56;4695884;29;20010;-87
2022/04/27 04:52:08;;;;;;;;;;;;;;;-145.06;0.00;60892.56;4694893;29;20023;-88
2022/04/27 04:54:47;;;;;;;;;;;;;;;-145.06;0.00;60892.56;4693254;29;19920;-87
2022/04/27 04:57:26;;;;;;;;;;;;;;;-145.06;0.00;60892.56;4688025;29;19920;-88
2022/04/27 05:00:07;;;;;;;;;;;;;;;-145.06;0.00;60892.56;4696541;29;19919;-88
2022/04/27 05:02:46;;;;;;;;;;;;;;;-145.06;0.00;60892.56;4699105;29;19919;-88
2022/04/27 05:05:25;;;;;;;;;;;;;;;-145.06;0.00;60892.56;4696217;29;19920;-89
2022/04/27 05:08:06;;;;;;;;;;;;;;;-145.06;0.00;60892.56;4706024;29;19924;-86
2022/04/27 05:10:45;;;;;;;;;;;;;;;-145.06;0.00;60892.56;4700033;29;19927;-89
2022/04/27 05:13:24;;;;;;;;;;;;;;;-145.06;0.00;60892.56;4701360;29;19924;-88
2022/04/27 05:16:03;;;;;;;;;;;;;;;-145.06;0.00;60892.56;4700803;29;20258;-88
2022/04/27 05:18:42;;;;;;;;;;;;;;;-145.06;0.00;60892.56;4705475;29;19920;-87
2022/04/27 05:21:21;;;;;;;;;;;;;;;-145.06;0.00;60892.56;4699807;29;19923;-88
2022/04/27 05:24:00;;;;;;;;;;;;;;;-145.06;0.00;60892.56;4699124;29;20436;-88
2022/04/27 05:26:39;;;;;;;;;;;;;;;-145.06;0.00;60892.56;4706389;29;19924;-88
2022/04/27 05:32:16;;;;;;;;;;;;;;;-145.06;0.00;60892.56;4719444;29;20011;-88
2022/04/27 05:34:55;;;;;;;;;;;;;;;-145.06;0.00;60892.56;4699086;29;19919;-88
2022/04/27 05:37:34;;;;;;;;;;;;;;;-145.06;0.00;60892.56;4698143;29;20011;-88
2022/04/27 05:40:13;;;;;;;;;;;;;;;-145.06;0.00;60892.56;4697890;29;19919;-87
2022/04/27 05:42:52;;;;;;;;;;;;;;;-145.06;0.00;60892.56;4699147;29;19924;-88
2022/04/27 05:45:32;;;;;;;;;;;;;;;-145.06;0.00;60892.56;4708068;29;19924;-88
2022/04/27 05:48:11;;;;;;;;;;;;;;;-145.06;0.00;60892.56;4700033;29;19967;-87
2022/04/27 05:50:51;;;;;;;;;;;;;;;-145.06;0.00;60892.56;4711585;29;19927;-88
2022/04/27 05:53:30;;;;;;;;;;;;;;;-145.06;0.00;60892.56;4700769;29;20628;-88
2022/04/27 05:56:09;;;;;;;;;;;;;;;-145.06;0.00;60892.56;4701129;29;19959;-88
2022/04/27 05:58:48;;;;;;;;;;;;;;;-145.06;0.00;60892.56;4700072;29;20017;-90
2022/04/27 06:01:27;;;;;;;;;;;;;;;-145.06;0.00;60892.56;4698636;29;19927;-89
2022/04/27 06:04:06;;;;;;;;;;;;;;;-145.06;0.00;60892.56;4720098;29;19951;-87
2022/04/27 06:06:45;;;;;;;;;;;;;;;-145.06;0.00;60892.56;4697629;29;19920;-88
2022/04/27 06:09:24;;;;;;;;;;;;;;;-145.06;0.00;60892.56;4697765;29;19927;-88
2022/04/27 06:12:05;;;;;;;;;;;;;;;-145.06;0.00;60892.56;4699584;29;20394;-87
2022/04/27 06:14:44;;;;;;;;;;;;;;;-145.06;0.00;60892.56;4727638;29;19923;-88
2022/04/27 06:17:24;;;;;;;;;;;;;;;-145.06;0.00;60892.56;4693565;29;20411;-88
2022/04/27 06:20:03;;;;;;;;;;;;;;;-145.06;0.00;60892.56;4695461;29;19920;-87
2022/04/27 06:22:42;;;;;;;;;;;;;;;-145.06;0.00;60892.56;4693899;29;19939;-88
2022/04/27 06:25:22;;;;;;;;;;;;;;;-145.06;0.00;60892.56;4725330;29;20416;-87
2022/04/27 06:28:02;;;;;;;;;;;;;;;-145.06;0.00;60892.56;4691557;29;19924;-87
2022/04/27 06:30:41;;;;;;;;;;;;;;;-145.06;0.00;60892.56;4707354;29;21848;-87
2022/04/27 06:33:20;;;;;;;;;;;;;;;-145.06;0.00;60892.56;4696993;29;19924;-88
2022/04/27 06:35:59;;;;;;;;;;;;;;;-145.06;0.00;60892.56;4694462;29;19999;-87
2022/04/27 06:38:38;;;;;;;;;;;;;;;8.06;0.00;60892.56;4714430;29;19919;-88
2022/04/27 06:41:19;;;;;;;;;;;;;;;-145.06;0.00;60892.56;4698483;29;19920;-88
2022/04/27 06:43:58;;;;;;;;;;;;;;;-145.06;0.00;60892.56;4695920;29;20366;-87
2022/04/27 06:46:41;;;;;;;;;;;;;;;-145.06;0.00;60892.56;4695628;29;19962;-88
2022/04/27 06:49:22;;;;;;;;;;;;;;;-145.06;0.00;60892.56;4696560;29;20287;-89
2022/04/27 06:52:06;;;;;;;;;;;;;;;-145.06;0.00;60892.56;4697350;29;20006;-88
2022/04/27 06:54:46;;;;;;;;;;;;;;;-145.06;0.00;60892.56;4705143;29;20266;-88
2022/04/27 06:57:25;;;;;;;;;;;;;;;-145.06;0.00;60892.56;4709911;29;19919;-88
2022/04/27 07:05:20;;;;;;;;;;;;;;;-145.06;0.00;60892.56;4749502;29;19927;-88
2022/04/27 07:08:14;;;;;;;;;;;;;;;187.52;0.00;60892.56;4747606;29;20013;-87
2022/04/27 07:10:56;;;;;;;;;;;;;;;-145.06;0.00;60892.56;4746098;29;19962;-89
2022/04/27 07:13:43;;;;;;;;;;;;;;;-145.06;0.00;60892.56;4732268;29;19915;-88
2022/04/27 07:16:26;;;;;;;;;;;;;;;-145.06;0.00;60892.56;4746602;29;19920;-88
2022/04/27 07:19:05;;;;;;;;;;;;;;;9.12;0.00;60892.56;4732866;29;20586;-88
2022/04/27 07:21:46;;;;;;;;;;;;;;;-145.06;0.00;60892.56;4726341;29;20402;-88
2022/04/27 07:24:36;;;;;;;;;;;;;;;-145.06;0.00;60892.56;4729224;29;19919;-89
2022/04/27 07:27:16;;;;;;;;;;;;;;;-145.06;0.00;60892.56;4737869;29;20022;-88
2022/04/27 07:30:16;;;;;;;;;;;;;;;-145.06;0.00;60892.56;4721027;29;19915;-90
2022/04/27 07:33:04;;;;;;;;;;;;;;;-145.06;0.00;60892.56;4717258;29;20345;-88
2022/04/27 07:35:54;;;;;;;;;;;;;;;-145.06;0.00;60892.56;4735603;29;20246;-88
2022/04/27 07:38:34;;;;;;;;;;;;;;;-145.06;0.00;60892.56;4729390;29;19919;-89
2022/04/27 07:41:16;;;;;;;;;;;;;;;-145.06;0.00;60892.56;4724264;29;19915;-88
2022/04/27 07:44:27;;;;;;;;;;;;;;;-145.06;0.00;60892.56;4724501;29;19919;-89
2022/04/27 07:47:09;;;;;;;;;;;;;;;-145.06;0.00;60892.56;4721081;29;19924;-87
2022/04/27 07:50:00;;;;;;;;;;;;;;;-145.06;0.00;60892.56;4726489;29;19967;-89
2022/04/27 07:52:39;;;;;;;;;;;;;;;-145.06;0.00;60892.56;4753798;29;19931;-88
2022/04/27 07:55:18;;;;;;;;;;;;;;;-145.06;0.00;60892.56;4735506;29;19927;-88
2022/04/27 07:58:26;;;;;;;;;;;;;;;;;;;;;
2022/04/27 08:01:11;;;;;;;;;;;;;;;10.40;0.00;60892.56;4734482;29;19923;-89
2022/04/27 08:03:52;;;;;;;;;;;;;;;10.48;0.00;60892.56;4723536;29;19919;-88
2022/04/27 08:06:36;;;;;;;;;;;;;;;10.58;0.00;60892.56;4724977;29;19923;-90
2022/04/27 08:09:16;;;;;;;;;;;;;;;-145.06;0.00;60892.56;4715279;29;20657;-89
2022/04/27 08:12:24;;;;;;;;;;;;;;;-145.06;0.00;60892.56;4736153;29;20009;-89
2022/04/27 08:15:32;;;;;;;;;;;;;;;-145.06;0.00;60892.56;4730492;29;19919;-88
2022/04/27 08:18:23;;;;;;;;;;;;;;;-145.06;0.00;60892.56;4671922;29;19924;-88
2022/04/27 08:21:14;;;;;;;;;;;;;;;-145.06;0.00;60892.56;4735502;29;19919;-89
2022/04/27 08:23:53;;;;;;;;;;;;;;;-145.06;0.00;60892.56;4723117;29;19923;-88
2022/04/27 08:26:33;;;;;;;;;;;;;;;-145.06;0.00;60892.56;4726067;29;19931;-87
2022/04/27 08:29:12;;;;;;;;;;;;;;;-145.06;0.00;60892.56;4727421;29;20377;-88
2022/04/27 08:31:53;;;;;;;;;;;;;;;-145.06;0.00;60892.56;4727852;29;20477;-88
2022/04/27 08:34:32;;;;;;;;;;;;;;;-145.06;0.00;60892.56;4728533;29;20017;-88
2022/04/27 08:37:11;;;;;;;;;;;;;;;-145.06;0.00;60892.56;4740910;29;20318;-88
2022/04/27 08:39:51;;;;;;;;;;;;;;;-145.06;0.00;60892.56;4728889;29;19915;-87
2022/04/27 08:42:30;;;;;;;;;;;;;;;-145.06;0.00;60892.56;4728396;29;19919;-89
2022/04/27 08:45:12;;;;;;;;;;;;;;;-145.06;0.00;60892.56;4719953;29;20357;-87
2022/04/27 08:48:00;;;;;;;;;;;;;;;-145.06;0.00;60892.56;4722880;29;19967;-89
2022/04/27 08:50:42;;;;;;;;;;;;;;;-145.06;0.00;60892.56;4719536;29;20014;-89
2022/04/27 08:53:21;;;;;;;;;;;;;;;-145.06;0.00;60892.56;4750459;29;20376;-88
2022/04/27 08:56:00;;;;;;;;;;;;;;;-145.06;0.00;60892.56;4730743;29;19919;-89
2022/04/27 08:58:39;;;;;;;;;;;;;;;-145.06;0.00;60892.56;4736049;29;20262;-87
2022/04/27 09:01:18;;;;;;;;;;;;;;;-145.06;0.00;60892.56;4721577;29;19919;-88
2022/04/27 09:04:11;;;;;;;;;;;;;;;-145.06;0.00;60892.56;4730529;29;19923;-89
2022/04/27 09:06:50;;;;;;;;;;;;;;;-145.06;0.00;60892.56;4732904;29;19931;-87
2022/04/27 09:09:33;;;;;;;;;;;;;;;-145.06;0.00;60892.56;4721590;29;20010;-89
2022/04/27 09:12:15;;;;;;;;;;;;;;;-145.06;0.00;60892.56;4722867;29;19919;-88
2022/04/27 09:15:02;;;;;;;;;;;;;;;-145.06;0.00;60892.56;4720940;29;19928;-89
2022/04/27 09:20:50;;;;;;;;;;;;;;;-145.06;0.00;60892.56;4736902;29;19919;-89
2022/04/27 09:23:40;;;;;;;;;;;;;;;-145.06;0.00;60892.56;4726595;29;20002;-88
2022/04/27 09:26:19;;;;;;;;;;;;;;;-145.06;0.00;60892.56;4730470;29;20385;-88
2022/04/27 09:28:59;;;;;;;;;;;;;;;-145.06;0.00;60892.56;4723045;29;19923;-88
2022/04/27 09:31:38;;;;;;;;;;;;;;;-145.06;0.00;60892.56;4728462;29;19919;-89
2022/04/27 09:34:29;;;;;;;;;;;;;;;-145.06;0.00;60892.56;4720256;29;19923;-88
2022/04/27 09:37:18;;;;;;;;;;;;;;;-145.06;0.00;60892.56;4711363;29;19923;-88
2022/04/27 09:40:06;;;;;;;;;;;;;;;-145.06;0.00;60892.56;4717363;29;19927;-88
2022/04/27 09:42:46;;;;;;;;;;;;;;;-145.06;0.00;60892.56;4719382;29;19919;-89
2022/04/27 09:45:25;;;;;;;;;;;;;;;-145.06;0.00;60892.56;4716338;29;19958;-89
2022/04/27 09:48:05;;;;;;;;;;;;;;;-145.06;0.00;60892.56;4726126;29;20009;-88
2022/04/27 09:50:52;;;;;;;;;;;;;;;-145.06;0.00;60892.56;4735628;29;20477;-89
2022/04/27 09:53:31;;;;;;;;;;;;;;;-145.06;0.00;60892.56;4721607;29;20548;-90
2022/04/27 09:56:14;;;;;;;;;;;;;;;-145.06;0.00;60892.56;4718621;29;19923;-89
2022/04/27 09:58:57;;;;;;;;;;;;;;;-145.06;0.00;60892.56;4720505;29;19966;-90
2022/04/27 10:01:38;;;;;;;;;;;;;;;-145.06;0.00;60892.56;4731104;29;19922;-88
2022/04/27 10:04:19;;;;;;;;;;;;;;;14.49;0.00;60892.56;4721396;29;20038;-88
2022/04/27 10:06:58;;;;;;;;;;;;;;;14.51;0.00;60892.56;4718030;29;19927;-89
2022/04/27 10:09:39;;;;;;;;;;;;;;;14.55;0.00;60892.56;4723108;29;19923;-88
2022/04/27 10:12:18;;;;;;;;;;;;;;;-145.06;0.00;60892.56;4724756;29;19924;-89
2022/04/27 10:14:59;;;;;;;;;;;;;;;-145.06;0.00;60892.56;4725179;29;20480;-90
2022/04/27 10:17:39;;;;;;;;;;;;;;;-145.06;0.00;60892.56;4717030;29;20255;-90
2022/04/27 10:20:34;;;;;;;;;;;;;;;-145.06;0.00;60892.56;4723585;29;19919;-89
2022/04/27 10:23:20;;;;;;;;;;;;;;;-145.06;0.00;60892.56;4719149;29;20259;-89
2022/04/27 10:26:29;;;;;;;;;;;;;;;-145.06;0.00;60892.56;4727171;29;19919;-91
2022/04/27 10:29:23;;;;;;;;;;;;;;;-145.06;0.00;60892.56;4725391;29;19923;-89
2022/04/27 10:32:02;;;;;;;;;;;;;;;-145.06;0.00;60892.56;4727917;29;19923;-89
2022/04/27 10:34:44;;;;;;;;;;;;;;;-145.06;0.00;60892.56;4729248;29;19919;-90
2022/04/27 10:37:58;;;;;;;;;;;;;;;-145.06;0.00;60892.56;4728562;29;19920;-90
2022/04/27 10:40:38;;;;;;;;;;;;;;;-145.06;0.00;60892.56;4744708;29;19920;-89
2022/04/27 10:43:31;;;;;;;;;;;;;;;-145.06;0.00;60892.56;4741989;29;20022;-90
2022/04/27 10:46:31;;;;;;;;;;;;;;;-145.06;0.00;60892.56;4722614;29;19919;-89
2022/04/27 10:49:23;;;;;;;;;;;;;;;-145.06;0.00;60892.56;4724739;29;20373;-90
2022/04/27 10:52:04;;;;;;;;;;;;;;;-145.06;0.00;60892.56;4724168;29;19919;-90
2022/04/27 10:54:43;;;;;;;;;;;;;;;-145.06;0.00;60892.56;4719850;29;19919;-91
2022/04/27 10:57:39;;;;;;;;;;;;;;;-145.06;0.00;60892.56;4727803;29;19919;-90
2022/04/27 11:00:27;;;;;;;;;;;;;;;-145.06;0.00;60892.56;4727219;29;19919;-91
2022/04/27 11:03:15;;;;;;;;;;;;;;;16.92;0.00;60892.56;4726398;29;19923;-90
2022/04/27 11:05:58;;;;;;;;;;;;;;;17.06;0.00;60892.56;4739486;29;20010;-87
2022/04/27 11:08:53;;;;;;;;;;;;;;;-145.06;0.00;60892.56;4720177;29;20378;-90
2022/04/27 11:11:50;;;;;;;;;;;;;;;-145.06;0.00;60892.56;4719605;29;20349;-90
2022/04/27 11:14:34;;;;;;;;;;;;;;;-145.06;0.00;60892.56;4724912;29;19919;-90
2022/04/27 11:17:25;;;;;;;;;;;;;;;-145.06;0.00;60892.56;4724018;29;19920;-90
2022/04/27 11:20:04;;;;;;;;;;;;;;;-145.06;0.00;60892.56;4720417;29;19923;-89
2022/04/27 11:22:43;;;;;;;;;;;;;;;-145.06;0.00;60892.56;4721841;29;19919;-89
2022/04/27 11:25:23;;;;;;;;;;;;;;;-145.06;0.00;60892.56;4728060;29;19966;-89
2022/04/27 11:28:03;;;;;;;;;;;;;;;-145.06;0.00;60892.56;4720238;29;20434;-87
2022/04/27 11:30:42;;;;;;;;;;;;;;;-145.06;0.00;60892.56;4730937;29;19919;-88
2022/04/27 11:33:21;;;;;;;;;;;;;;;-145.06;0.00;60892.56;4741210;29;19931;-91
2022/04/27 11:36:00;;;;;;;;;;;;;;;18.38;0.00;60892.56;4749459;29;19935;-90
2022/04/27 11:38:39;;;;;;;;;;;;;;;-145.06;0.00;60892.56;4729309;29;20405;-90
2022/04/27 11:41:19;;;;;;;;;;;;;;;-145.06;0.00;60892.56;4719892;29;19923;-89
2022/04/27 11:43:58;;;;;;;;;;;;;;;-145.06;0.00;60892.56;4721229;29;19919;-90
2022/04/27 11:46:37;;;;;;;;;;;;;;;-145.06;0.00;60892.56;4719434;29;19939;-90
2022/04/27 11:49:16;;;;;;;;;;;;;;;-145.06;0.00;60892.56;4718139;29;19920;-91
2022/04/27 11:51:56;;;;;;;;;;;;;;;-145.06;0.00;60892.56;4719620;29;19927;-89
2022/04/27 11:54:35;;;;;;;;;;;;;;;-145.06;0.00;60892.56;4724049;29;20624;-91
2022/04/27 11:57:19;;;;;;;;;;;;;;;-145.06;0.00;60892.56;4720560;29;19924;-88
2022/04/27 11:59:58;;;;;;;;;;;;;;;-145.06;0.00;60892.56;4718694;29;20370;-87
2022/04/27 12:02:40;;;;;;;;;;;;;;;-145.06;0.00;60892.56;4728360;29;20530;-89
2022/04/27 12:05:29;;;;;;;;;;;;;;;-145.06;0.00;60892.56;4721587;29;19920;-88
2022/04/27 12:08:11;;;;;;;;;;;;;;;-145.06;0.00;60892.56;4721240;29;19923;-88
2022/04/27 12:10:52;;;;;;;;;;;;;;;-145.06;0.00;60892.56;4715823;29;19920;-88
2022/04/27 12:13:33;;;;;;;;;;;;;;;-145.06;0.00;60892.56;4713456;29;19920;-88
2022/04/27 12:16:12;;;;;;;;;;;;;;;-145.06;0.00;60892.56;4744911;29;19919;-87
2022/04/27 12:18:54;;;;;;;;;;;;;;;-145.06;0.00;60892.56;4719939;29;19927;-87
2022/04/27 12:21:32;;;;;;;;;;;;;;;-145.06;0.00;60892.56;4722240;29;20354;-87
2022/04/27 12:24:16;;;;;;;;;;;;;;;-145.06;0.00;60892.56;4714004;29;19919;-87
2022/04/27 12:26:55;;;;;;;;;;;;;;;-145.06;0.00;60892.56;4720924;29;19931;-87
2022/04/27 12:29:34;;;;;;;;;;;;;;;-145.06;0.00;60892.56;4719188;29;19919;-87
2022/04/27 12:32:13;;;;;;;;;;;;;;;-145.06;0.00;60892.56;4718453;29;19923;-87
2022/04/27 12:37:49;;;;;;;;;;;;;;;-145.06;0.00;60892.56;4733808;29;20354;-89
2022/04/27 12:40:32;;;;;;;;;;;;;;;-145.06;0.00;60892.56;4744189;29;19923;-89
2022/04/27 12:43:12;;;;;;;;;;;;;;;-145.06;0.00;60892.56;4728197;29;20250;-89
2022/04/27 12:46:10;;;;;;;;;;;;;;;19.51;0.00;60892.56;4727979;29;20267;-89
2022/04/27 12:48:58;;;;;;;;;;;;;;;-145.06;0.00;60892.56;4723355;29;19927;-90
2022/04/27 12:51:37;;;;;;;;;;;;;;;-145.06;0.00;60892.56;4721288;29;20401;-91
2022/04/27 12:54:16;;;;;;;;;;;;;;;-145.06;0.00;60892.56;4713668;29;19919;-89
2022/04/27 12:56:58;;;;;;;;;;;;;;;-145.06;0.00;60892.56;4733285;29;20358;-89
2022/04/27 12:59:53;;;;;;;;;;;;;;;-145.06;0.00;60892.56;4727160;29;19919;-90
2022/04/27 13:02:32;;;;;;;;;;;;;;;-145.06;0.00;60892.56;4718826;29;20002;-87
2022/04/27 13:05:11;;;;;;;;;;;;;;;-145.06;0.00;60892.56;4716400;29;19919;-86
2022/04/27 13:07:50;;;;;;;;;;;;;;;-145.06;0.00;60892.56;4728152;29;20037;-87
2022/04/27 13:13:26;;;;;;;;;;;;;;;-145.06;0.00;60892.56;4743100;29;20222;-87
2022/04/27 13:16:05;;;;;;;;;;;;;;;-145.06;0.00;60892.56;4751753;29;20270;-88
2022/04/27 13:18:44;;;;;;;;;;;;;;;-145.06;0.00;60892.56;4741107;29;19919;-88
2022/04/27 13:21:23;;;;;;;;;;;;;;;-145.06;0.00;60892.56;4725419;29;19919;-88
2022/04/27 13:24:02;;;;;;;;;;;;;;;-145.06;0.00;60892.56;4711431;29;19959;-89
2022/04/27 13:26:41;;;;;;;;;;;;;;;-145.06;0.00;60892.56;4723444;29;19915;-88
2022/04/27 13:29:20;;;;;;;;;;;;;;;-145.06;0.00;60892.56;4732234;29;19951;-87
2022/04/27 13:31:59;;;;;;;;;;;;;;;-145.06;0.00;60892.56;4728253;29;19923;-88
2022/04/27 13:34:38;;;;;;;;;;;;;;;-145.06;0.00;60892.56;4716913;29;20446;-88
2022/04/27 13:37:17;;;;;;;;;;;;;;;-145.06;0.00;60892.56;4721599;29;20382;-88
2022/04/27 13:39:57;;;;;;;;;;;;;;;-145.06;0.00;60892.56;4721013;29;19919;-87
2022/04/27 13:42:39;;;;;;;;;;;;;;;-145.06;0.00;60892.56;4726603;29;19919;-87
2022/04/27 13:45:19;;;;;;;;;;;;;;;-145.06;0.00;60892.56;4721574;29;20433;-87
2022/04/27 13:47:58;;;;;;;;;;;;;;;-145.06;0.00;60892.56;4727466;29;19919;-88
2022/04/27 13:50:38;;;;;;;;;;;;;;;-145.06;0.00;60892.56;4721214;29;20258;-88
2022/04/27 13:53:18;;;;;;;;;;;;;;;-145.06;0.00;60892.56;4727282;29;19923;-88
2022/04/27 13:55:57;;;;;;;;;;;;;;;-145.06;0.00;60892.56;4721500;29;19927;-89
2022/04/27 13:58:36;;;;;;;;;;;;;;;-145.06;0.00;60892.56;4732072;29;19923;-88
2022/04/27 14:01:15;;;;;;;;;;;;;;;-145.06;0.00;60892.56;4724181;29;19919;-87
2022/04/27 14:03:54;;;;;;;;;;;;;;;-145.06;0.00;60892.56;4726642;29;20002;-88
2022/04/27 14:06:33;;;;;;;;;;;;;;;-145.06;0.00;60892.56;4732646;29;19919;-87
2022/04/27 14:09:12;;;;;;;;;;;;;;;-145.06;0.00;60892.56;4724941;29;19954;-88
2022/04/27 14:14:49;;;;;;;;;;;;;;;-145.06;0.00;60892.56;4745170;29;19919;-87
2022/04/27 14:20:26;;;;;;;;;;;;;;;-145.06;0.00;60892.56;4743250;29;19919;-89
2022/04/27 14:23:05;;;;;;;;;;;;;;;-145.06;0.00;60892.56;4748761;29;19924;-87
2022/04/27 14:25:47;;;;;;;;;;;;;;;-145.06;0.00;60892.56;4743727;29;20270;-88
2022/04/27 14:28:26;;;;;;;;;;;;;;;-145.06;0.00;60892.56;4727222;29;19923;-88
2022/04/27 14:31:05;;;;;;;;;;;;;;;-145.06;0.00;60892.56;4723992;29;19958;-87